Time;durP1;ratioP1;P1;durP2;ratioP2;P2;SDS_P1;SDS_P2;PMS_P1;PMS_P2;Temp;Humidity;BMP_temperature;BMP_pressure;BME280_temperature;BME280_humidity;BME280_pressure;Samples;Min_cycle;Max_cycle;Signal;HPM_P1;HPM_P2
2021/09/02 00:00:14;;;;;;;;;;;26.30;99.90;;;;;;1792968;79;20139;-89
2021/09/02 00:02:44;;;;;;;;;;;26.20;99.90;;;;;;1803776;79;20400;-92
2021/09/02 00:05:14;;;;;;;;;;;26.20;99.90;;;;;;1800282;79;20166;-91
2021/09/02 00:07:44;;;;;;;;;;;26.30;99.90;;;;;;1791396;78;20143;-90
2021/09/02 00:10:14;;;;;;;;;;;26.30;99.90;;;;;;1789860;79;20170;-89
2021/09/02 00:12:43;;;;;;;;;;;26.30;99.90;;;;;;1794227;79;20294;-90
2021/09/02 00:15:13;;;;;;;;;;;26.20;99.90;;;;;;1798438;79;20214;-91
2021/09/02 00:17:42;;;;;;;;;;;26.20;99.90;;;;;;1802702;79;20314;-91
2021/09/02 00:20:12;;;;;;;;;;;26.20;99.90;;;;;;1802636;79;20223;-92
2021/09/02 00:22:43;;;;;;;;;;;26.20;99.90;;;;;;1805748;79;20269;-91
2021/09/02 00:25:13;;;;;;;;;;;26.20;99.90;;;;;;1795784;78;20473;-91
2021/09/02 00:27:42;;;;;;;;;;;26.20;99.90;;;;;;1797400;79;20253;-89
2021/09/02 00:30:12;;;;;;;;;;;26.20;99.90;;;;;;1797096;79;20285;-90
2021/09/02 00:32:41;;;;;;;;;;;26.20;99.90;;;;;;1798304;79;20196;-90
2021/09/02 00:35:11;;;;;;;;;;;26.20;99.90;;;;;;1790799;79;20178;-91
2021/09/02 00:37:41;;;;;;;;;;;26.20;99.90;;;;;;1792815;79;20241;-90
2021/09/02 00:40:20;;;;;;;;;;;26.30;99.90;;;;;;1798591;79;20180;-91
2021/09/02 00:42:51;;;;;;;;;;;26.20;99.90;;;;;;1800432;79;20190;-90
2021/09/02 00:45:20;;;;;;;;;;;26.30;99.90;;;;;;1801483;79;20121;-88
2021/09/02 00:47:52;;;;;;;;;;;26.30;99.90;;;;;;1778497;79;20182;-92
2021/09/02 00:50:25;;;;;;;;;;;26.30;99.90;;;;;;1795273;79;20225;-94
2021/09/02 00:52:55;;;;;;;;;;;26.30;99.90;;;;;;1787441;79;20206;-92
2021/09/02 00:55:24;;;;;;;;;;;26.40;99.90;;;;;;1799949;79;20261;-93
2021/09/02 00:57:54;;;;;;;;;;;26.40;99.90;;;;;;1794761;79;20536;-92
2021/09/02 01:00:24;;;;;;;;;;;26.50;99.90;;;;;;1832217;77;20616;-91
2021/09/02 01:02:53;;;;;;;;;;;26.50;99.90;;;;;;1834920;77;20142;-91
2021/09/02 01:05:23;;;;;;;;;;;26.60;99.90;;;;;;1847705;76;20524;-91
2021/09/02 01:07:59;;;;;;;;;;;26.60;99.90;;;;;;1843353;78;20182;-88
2021/09/02 01:10:29;;;;;;;;;;;26.70;99.90;;;;;;1841371;78;20131;-90
2021/09/02 01:12:59;;;;;;;;;;;26.80;99.90;;;;;;1841555;78;20182;-92
2021/09/02 01:15:30;;;;;;;;;;;26.80;99.90;;;;;;1800067;80;20189;-91
2021/09/02 01:18:00;;;;;;;;;;;26.90;99.90;;;;;;1843671;77;20176;-91
2021/09/02 01:20:32;;;;;;;;;;;26.90;99.90;;;;;;1840351;76;20172;-91
2021/09/02 01:23:03;;;;;;;;;;;27.00;99.90;;;;;;1842671;76;20201;-91
2021/09/02 01:25:58;;;;;;;;;;;27.10;99.90;;;;;;1842475;76;20192;-89
2021/09/02 01:28:34;;;;;;;;;;;27.00;99.90;;;;;;1742918;81;20273;-91
2021/09/02 01:31:04;;;;;;;;;;;27.00;99.90;;;;;;1735628;81;20517;-92
2021/09/02 01:33:34;;;;;;;;;;;27.10;99.90;;;;;;1734829;81;20143;-94
2021/09/02 01:36:05;;;;;;;;;;;27.10;99.90;;;;;;1741159;81;20234;-76
2021/09/02 01:38:34;;;;;;;;;;;27.10;99.90;;;;;;1756770;81;20279;-77
2021/09/02 01:41:04;;;;;;;;;;;27.10;99.90;;;;;;1752813;80;20256;-77
2021/09/02 01:43:34;;;;;;;;;;;27.10;99.90;;;;;;1729327;83;20515;-78
2021/09/02 01:46:03;;;;;;;;;;;27.20;99.90;;;;;;1744245;81;20260;-77
2021/09/02 01:48:34;;;;;;;;;;;27.20;99.90;;;;;;1751399;82;20254;-77
2021/09/02 01:51:04;;;;;;;;;;;27.30;99.90;;;;;;1754562;82;20145;-76
2021/09/02 01:53:34;;;;;;;;;;;27.40;99.90;;;;;;1741492;81;20231;-76
2021/09/02 01:56:03;;;;;;;;;;;27.50;99.90;;;;;;1736270;82;20527;-76
2021/09/02 01:58:33;;;;;;;;;;;27.60;99.90;;;;;;1738957;81;20268;-77
2021/09/02 02:01:02;;;;;;;;;;;27.60;99.90;;;;;;1740023;81;20291;-77
2021/09/02 02:03:32;;;;;;;;;;;27.70;99.90;;;;;;1762770;80;20205;-81
2021/09/02 02:06:02;;;;;;;;;;;27.70;99.90;;;;;;1794762;78;20288;-78
2021/09/02 02:08:31;;;;;;;;;;;27.70;99.90;;;;;;1803004;79;20274;-79
2021/09/02 02:11:01;;;;;;;;;;;27.80;99.90;;;;;;1792796;78;20241;-76
2021/09/02 02:13:31;;;;;;;;;;;28.00;99.90;;;;;;1788385;78;20238;-76
2021/09/02 02:16:00;;;;;;;;;;;28.10;99.90;;;;;;1796411;78;20260;-75
2021/09/02 02:18:30;;;;;;;;;;;28.20;99.90;;;;;;1757417;80;20142;-75
2021/09/02 02:21:00;;;;;;;;;;;28.30;99.90;;;;;;1758043;80;20129;-77
2021/09/02 02:23:30;;;;;;;;;;;28.50;99.90;;;;;;1786538;79;20234;-77
2021/09/02 02:25:59;;;;;;;;;;;28.70;99.90;;;;;;1789711;78;20252;-77
2021/09/02 02:28:29;;;;;;;;;;;28.90;99.90;;;;;;1791268;78;20500;-77
2021/09/02 02:30:59;;;;;;;;;;;29.10;99.90;;;;;;1787220;78;20205;-78
2021/09/02 02:33:29;;;;;;;;;;;29.20;99.90;;;;;;1787148;79;20537;-78
2021/09/02 02:35:59;;;;;;;;;;;29.30;99.90;;;;;;1788467;78;20252;-78
2021/09/02 02:38:29;;;;;;;;;;;29.40;99.90;;;;;;1789404;78;20204;-78
2021/09/02 02:40:58;;;;;;;;;;;29.40;99.90;;;;;;1819987;78;20137;-79
2021/09/02 02:43:28;;;;;;;;;;;29.40;99.90;;;;;;1798685;78;20305;-80
2021/09/02 02:46:00;;;;;;;;;;;29.40;99.90;;;;;;1794838;78;20621;-79
2021/09/02 02:48:30;;;;;;;;;;;29.30;99.90;;;;;;1786634;78;20248;-80
2021/09/02 02:51:00;;;;;;;;;;;29.20;99.90;;;;;;1794018;78;20255;-78
2021/09/02 02:53:29;;;;;;;;;;;29.00;99.90;;;;;;1801635;78;20258;-79
2021/09/02 02:55:59;;;;;;;;;;;28.90;99.90;;;;;;1797333;78;20270;-78
2021/09/02 02:58:33;;;;;;;;;;;28.80;99.90;;;;;;1782684;78;20197;-78
2021/09/02 03:01:00;;;;;;;;;;;28.70;99.90;;;;;;1812362;77;20242;-79
2021/09/02 03:03:30;;;;;;;;;;;28.60;99.90;;;;;;1828738;76;20465;-83
2021/09/02 03:05:59;;;;;;;;;;;28.60;99.90;;;;;;1836311;77;20489;-82
2021/09/02 03:08:29;;;;;;;;;;;28.50;99.90;;;;;;1844347;77;20134;-85
2021/09/02 03:10:59;;;;;;;;;;;28.50;99.90;;;;;;1856169;76;20505;-83
2021/09/02 03:13:28;;;;;;;;;;;28.50;99.90;;;;;;1850254;77;20218;-82
2021/09/02 03:15:58;;;;;;;;;;;28.50;99.90;;;;;;1836371;77;20137;-82
2021/09/02 03:18:28;;;;;;;;;;;28.60;99.90;;;;;;1828706;78;20249;-82
2021/09/02 03:20:58;;;;;;;;;;;28.80;99.90;;;;;;1852063;77;20202;-82
2021/09/02 03:23:32;;;;;;;;;;;29.00;99.90;;;;;;1849251;77;20548;-80
2021/09/02 03:26:02;;;;;;;;;;;29.10;99.90;;;;;;1849113;77;20328;-78
2021/09/02 03:28:32;;;;;;;;;;;29.30;99.90;;;;;;1851472;77;20186;-78
2021/09/02 03:31:01;;;;;;;;;;;29.30;99.90;;;;;;1851010;77;20531;-79
2021/09/02 03:33:31;;;;;;;;;;;29.40;99.90;;;;;;1850337;77;20170;-78
2021/09/02 03:36:01;;;;;;;;;;;29.50;99.60;;;;;;1851728;77;20134;-79
2021/09/02 03:38:31;;;;;;;;;;;29.60;99.40;;;;;;1846459;77;20178;-79
2021/09/02 03:41:03;;;;;;;;;;;29.50;99.20;;;;;;1850988;77;20367;-78
2021/09/02 03:43:32;;;;;;;;;;;29.40;99.80;;;;;;1848781;76;20190;-78
2021/09/02 03:46:01;;;;;;;;;;;29.40;99.90;;;;;;1852695;77;20182;-79
2021/09/02 03:48:31;;;;;;;;;;;29.30;99.90;;;;;;1848938;77;20162;-79
2021/09/02 03:51:01;;;;;;;;;;;29.30;99.90;;;;;;1853352;77;20170;-77
2021/09/02 03:53:31;;;;;;;;;;;29.20;99.90;;;;;;1859209;77;20190;-78
2021/09/02 03:56:01;;;;;;;;;;;29.20;99.90;;;;;;1856962;77;20277;-77
2021/09/02 03:58:31;;;;;;;;;;;29.10;99.90;;;;;;1825344;77;20205;-77
2021/09/02 04:01:01;;;;;;;;;;;29.10;99.90;;;;;;1784922;79;20168;-77
2021/09/02 04:03:31;;;;;;;;;;;29.10;99.90;;;;;;1828661;76;20216;-77
2021/09/02 04:06:02;;;;;;;;;;;29.10;99.90;;;;;;1833495;77;20157;-76
2021/09/02 04:08:32;;;;;;;;;;;29.10;99.90;;;;;;1821362;77;20145;-76
2021/09/02 04:11:02;;;;;;;;;;;29.20;99.90;;;;;;1817866;77;20850;-76
2021/09/02 04:13:32;;;;;;;;;;;29.30;99.90;;;;;;1793170;78;20210;-74
2021/09/02 04:16:01;;;;;;;;;;;29.40;99.90;;;;;;1833143;76;20209;-76
2021/09/02 04:18:33;;;;;;;;;;;29.60;99.90;;;;;;1821593;76;20176;-77
2021/09/02 04:21:05;;;;;;;;;;;29.70;99.90;;;;;;1859495;76;20231;-76
2021/09/02 04:23:34;;;;;;;;;;;29.90;97.30;;;;;;1859869;76;20185;-77
2021/09/02 04:26:04;;;;;;;;;;;30.10;96.50;;;;;;1851294;76;20209;-79
2021/09/02 04:28:34;;;;;;;;;;;30.30;97.80;;;;;;1856739;76;20624;-80
2021/09/02 04:31:09;;;;;;;;;;;30.30;95.30;;;;;;1820661;76;20215;-76
2021/09/02 04:33:39;;;;;;;;;;;30.40;94.60;;;;;;1787446;79;20188;-78
2021/09/02 04:36:11;;;;;;;;;;;30.60;93.80;;;;;;1825584;77;20521;-78
2021/09/02 04:38:39;;;;;;;;;;;30.70;94.50;;;;;;1821159;77;20214;-77
2021/09/02 04:41:09;;;;;;;;;;;30.70;95.90;;;;;;1827713;77;20167;-77
2021/09/02 04:43:39;;;;;;;;;;;30.80;93.70;;;;;;1825213;78;20187;-77
2021/09/02 04:46:11;;;;;;;;;;;30.80;94.90;;;;;;1827766;76;20165;-76
2021/09/02 04:48:40;;;;;;;;;;;30.70;96.00;;;;;;1824469;76;20167;-78
2021/09/02 04:51:10;;;;;;;;;;;30.70;99.00;;;;;;1824225;76;20223;-77
2021/09/02 04:53:39;;;;;;;;;;;30.70;97.50;;;;;;1821670;77;20224;-77
2021/09/02 04:56:09;;;;;;;;;;;30.80;97.10;;;;;;1832418;77;20127;-77
2021/09/02 04:58:40;;;;;;;;;;;31.00;97.00;;;;;;1836234;78;20197;-77
2021/09/02 05:01:09;;;;;;;;;;;31.10;96.90;;;;;;1831362;76;20193;-79
2021/09/02 05:03:39;;;;;;;;;;;31.10;93.80;;;;;;1860334;76;20240;-77
2021/09/02 05:06:09;;;;;;;;;;;31.20;94.00;;;;;;1859089;76;20281;-78
2021/09/02 05:08:38;;;;;;;;;;;31.20;95.90;;;;;;1862308;76;20164;-77
2021/09/02 05:11:08;;;;;;;;;;;31.20;95.60;;;;;;1858846;76;20213;-78
2021/09/02 05:13:38;;;;;;;;;;;31.40;95.50;;;;;;1855442;76;20195;-77
2021/09/02 05:16:07;;;;;;;;;;;31.50;98.30;;;;;;1852947;76;20285;-79
2021/09/02 05:18:37;;;;;;;;;;;31.60;97.50;;;;;;1860105;77;20221;-77
2021/09/02 05:21:07;;;;;;;;;;;31.60;96.70;;;;;;1820260;77;20606;-78
2021/09/02 05:23:37;;;;;;;;;;;31.60;93.50;;;;;;1779824;79;20209;-79
2021/09/02 05:26:06;;;;;;;;;;;31.60;95.10;;;;;;1794706;78;20220;-78
2021/09/02 05:28:36;;;;;;;;;;;31.50;95.60;;;;;;1794495;79;20205;-78
2021/09/02 05:31:05;;;;;;;;;;;31.40;97.00;;;;;;1768104;80;20286;-79
2021/09/02 05:33:35;;;;;;;;;;;31.30;97.50;;;;;;1819053;77;20200;-78
2021/09/02 05:36:05;;;;;;;;;;;31.20;96.10;;;;;;1823401;78;20244;-78
2021/09/02 05:38:35;;;;;;;;;;;31.20;98.80;;;;;;1807179;78;20712;-76
2021/09/02 05:41:04;;;;;;;;;;;31.00;98.50;;;;;;1779048;79;20256;-78
2021/09/02 05:43:34;;;;;;;;;;;31.00;97.20;;;;;;1807320;78;20236;-79
2021/09/02 05:46:04;;;;;;;;;;;31.00;94.90;;;;;;1825644;77;20534;-77
2021/09/02 05:48:33;;;;;;;;;;;31.00;95.30;;;;;;1826020;77;20253;-78
2021/09/02 05:51:03;;;;;;;;;;;31.20;94.90;;;;;;1790582;79;20216;-77
2021/09/02 05:53:32;;;;;;;;;;;31.30;93.80;;;;;;1795402;78;20131;-78
2021/09/02 05:56:02;;;;;;;;;;;31.50;93.90;;;;;;1855528;76;20206;-79
2021/09/02 05:58:31;;;;;;;;;;;31.60;93.20;;;;;;1859818;76;20229;-79
2021/09/02 06:01:01;;;;;;;;;;;31.70;93.70;;;;;;1852016;76;20237;-80
2021/09/02 06:03:31;;;;;;;;;;;31.80;92.50;;;;;;1838971;76;20198;-81
2021/09/02 06:06:01;;;;;;;;;;;31.80;93.10;;;;;;1841112;76;20131;-81
2021/09/02 06:08:30;;;;;;;;;;;31.80;93.30;;;;;;1847018;76;20434;-78
2021/09/02 06:11:02;;;;;;;;;;;31.80;93.10;;;;;;1846559;76;20165;-78
2021/09/02 06:13:32;;;;;;;;;;;31.80;92.90;;;;;;1847139;76;20255;-78
2021/09/02 06:16:02;;;;;;;;;;;31.90;92.90;;;;;;1848473;76;20185;-78
2021/09/02 06:18:32;;;;;;;;;;;32.00;92.20;;;;;;1844492;76;20242;-78
2021/09/02 06:21:01;;;;;;;;;;;32.10;93.10;;;;;;1845580;77;20244;-80
2021/09/02 06:23:31;;;;;;;;;;;32.10;92.80;;;;;;1847907;77;20212;-79
2021/09/02 06:26:01;;;;;;;;;;;32.10;91.40;;;;;;1841925;76;20218;-80
2021/09/02 06:28:31;;;;;;;;;;;32.10;92.40;;;;;;1838194;76;20485;-79
2021/09/02 06:31:03;;;;;;;;;;;31.90;93.30;;;;;;1839201;76;20469;-80
2021/09/02 06:33:34;;;;;;;;;;;31.80;91.60;;;;;;1841069;76;20245;-80
2021/09/02 06:36:05;;;;;;;;;;;31.70;92.50;;;;;;1842170;76;20208;-79
2021/09/02 06:38:34;;;;;;;;;;;31.50;92.00;;;;;;1851705;76;20475;-80
2021/09/02 06:41:04;;;;;;;;;;;31.40;93.20;;;;;;1850470;77;20475;-77
2021/09/02 06:43:33;;;;;;;;;;;31.30;93.10;;;;;;1848084;76;20184;-78
2021/09/02 06:46:04;;;;;;;;;;;31.20;94.30;;;;;;1845820;76;20217;-78
2021/09/02 06:48:34;;;;;;;;;;;31.10;93.80;;;;;;1852014;77;20495;-79
2021/09/02 06:51:04;;;;;;;;;;;31.10;93.40;;;;;;1849620;76;20231;-79
2021/09/02 06:53:33;;;;;;;;;;;31.00;92.40;;;;;;1849663;76;20213;-81
2021/09/02 06:56:03;;;;;;;;;;;30.90;92.20;;;;;;1850147;76;20383;-79
2021/09/02 06:58:41;;;;;;;;;;;30.80;92.50;;;;;;1850373;77;20318;-79
2021/09/02 07:01:11;;;;;;;;;;;30.60;92.90;;;;;;1857222;76;20165;-78
2021/09/02 07:03:44;;;;;;;;;;;30.50;93.90;;;;;;1853501;75;20225;-79
2021/09/02 07:06:14;;;;;;;;;;;30.30;94.70;;;;;;1850645;76;20300;-78
2021/09/02 07:08:44;;;;;;;;;;;30.10;95.60;;;;;;1830353;78;20304;-78
2021/09/02 07:11:14;;;;;;;;;;;29.70;97.10;;;;;;1810319;78;20156;-77
2021/09/02 07:13:43;;;;;;;;;;;29.40;97.90;;;;;;1803150;78;20187;-76
2021/09/02 07:16:13;;;;;;;;;;;29.00;99.00;;;;;;1848612;76;20205;-77
2021/09/02 07:18:43;;;;;;;;;;;28.70;99.80;;;;;;1859973;77;20146;-77
2021/09/02 07:21:12;;;;;;;;;;;28.30;99.90;;;;;;1840155;75;20509;-76
2021/09/02 07:23:43;;;;;;;;;;;28.10;99.90;;;;;;1842645;77;20470;-76
2021/09/02 07:26:14;;;;;;;;;;;27.90;99.90;;;;;;1810969;78;20134;-74
2021/09/02 07:28:44;;;;;;;;;;;27.60;99.90;;;;;;1842290;76;20205;-75
2021/09/02 07:31:13;;;;;;;;;;;27.40;99.90;;;;;;1836562;76;20179;-75
2021/09/02 07:33:43;;;;;;;;;;;27.20;99.90;;;;;;1839286;76;20292;-75
2021/09/02 07:36:13;;;;;;;;;;;27.10;99.90;;;;;;1845700;77;20538;-75
2021/09/02 07:38:44;;;;;;;;;;;27.00;99.90;;;;;;1838836;77;20212;-74
2021/09/02 07:41:17;;;;;;;;;;;27.00;99.90;;;;;;1842279;77;20425;-76
2021/09/02 07:43:49;;;;;;;;;;;27.10;99.90;;;;;;1811039;77;20220;-75
2021/09/02 07:46:19;;;;;;;;;;;27.10;99.90;;;;;;1820165;77;20571;-75
2021/09/02 07:48:49;;;;;;;;;;;27.10;99.90;;;;;;1814259;77;20200;-75
2021/09/02 07:51:20;;;;;;;;;;;27.20;99.90;;;;;;1819352;77;20161;-76
2021/09/02 07:53:49;;;;;;;;;;;27.20;99.90;;;;;;1823459;77;20204;-76
2021/09/02 07:56:19;;;;;;;;;;;27.30;99.90;;;;;;1818706;77;20518;-75
2021/09/02 07:58:49;;;;;;;;;;;27.30;99.90;;;;;;1814189;77;20208;-75
2021/09/02 08:01:22;;;;;;;;;;;27.40;99.90;;;;;;1800831;78;20210;-76
2021/09/02 08:03:50;;;;;;;;;;;27.50;99.90;;;;;;1856623;76;20291;-74
2021/09/02 08:06:20;;;;;;;;;;;27.60;99.90;;;;;;1866527;74;20274;-75
2021/09/02 08:08:50;;;;;;;;;;;27.70;99.90;;;;;;1875807;76;20222;-75
2021/09/02 08:11:19;;;;;;;;;;;27.80;99.90;;;;;;1854347;76;20591;-76
2021/09/02 08:13:49;;;;;;;;;;;28.00;99.90;;;;;;1858063;76;20273;-75
2021/09/02 08:16:19;;;;;;;;;;;28.10;99.90;;;;;;1860143;76;20249;-77
2021/09/02 08:18:50;;;;;;;;;;;28.20;99.90;;;;;;1863775;76;20184;-77
2021/09/02 08:21:22;;;;;;;;;;;28.30;99.90;;;;;;1853014;76;20597;-79
2021/09/02 08:23:58;;;;;;;;;;;28.40;99.90;;;;;;1852637;76;20288;-75
2021/09/02 08:26:27;;;;;;;;;;;28.60;99.90;;;;;;1852614;76;20192;-77
2021/09/02 08:28:57;;;;;;;;;;;28.70;99.90;;;;;;1857465;76;20883;-76
2021/09/02 08:31:28;;;;;;;;;;;28.90;99.90;;;;;;1854299;76;20286;-75
2021/09/02 08:33:58;;;;;;;;;;;28.90;99.90;;;;;;1854991;76;20411;-75
2021/09/02 08:36:31;;;;;;;;;;;29.00;99.90;;;;;;1855402;76;20525;-77
2021/09/02 08:38:59;;;;;;;;;;;29.10;99.90;;;;;;1857598;76;20221;-74
2021/09/02 08:41:28;;;;;;;;;;;29.10;99.90;;;;;;1827912;76;20227;-76
2021/09/02 08:43:58;;;;;;;;;;;29.10;99.90;;;;;;1827892;76;20317;-75
2021/09/02 08:46:30;;;;;;;;;;;29.10;99.90;;;;;;1831032;76;20167;-79
2021/09/02 08:49:01;;;;;;;;;;;29.20;99.90;;;;;;1843189;76;20215;-77
2021/09/02 08:51:30;;;;;;;;;;;29.20;99.90;;;;;;1827986;77;20239;-78
2021/09/02 08:54:00;;;;;;;;;;;29.10;99.90;;;;;;1823808;77;20968;-77
2021/09/02 08:56:30;;;;;;;;;;;29.10;99.90;;;;;;1829236;76;20530;-79
2021/09/02 08:58:59;;;;;;;;;;;29.00;99.90;;;;;;1807198;77;20277;-77
2021/09/02 09:01:29;;;;;;;;;;;29.00;99.90;;;;;;1823133;77;20436;-78
2021/09/02 09:03:59;;;;;;;;;;;28.90;99.90;;;;;;1821499;76;20242;-80
2021/09/02 09:06:30;;;;;;;;;;;28.90;99.90;;;;;;1826344;77;20517;-78
2021/09/02 09:09:00;;;;;;;;;;;28.90;99.90;;;;;;1818109;77;20227;-79
2021/09/02 09:11:30;;;;;;;;;;;28.90;99.90;;;;;;1829194;77;20217;-79
2021/09/02 09:14:06;;;;;;;;;;;28.90;99.90;;;;;;1819556;77;20263;-78
2021/09/02 09:16:33;;;;;;;;;;;28.90;99.90;;;;;;1815135;77;20211;-78
2021/09/02 09:19:03;;;;;;;;;;;28.90;99.90;;;;;;1825088;78;20179;-78
2021/09/02 09:21:33;;;;;;;;;;;28.90;99.90;;;;;;1835655;76;20145;-78
2021/09/02 09:24:07;;;;;;;;;;;28.90;99.90;;;;;;1790340;79;20530;-76
2021/09/02 09:26:35;;;;;;;;;;;28.90;99.90;;;;;;1826610;76;20142;-79
2021/09/02 09:29:06;;;;;;;;;;;28.90;99.90;;;;;;1825968;77;20490;-78
2021/09/02 09:31:37;;;;;;;;;;;28.90;99.90;;;;;;1818476;77;20200;-76
2021/09/02 09:34:07;;;;;;;;;;;28.90;99.90;;;;;;1820947;77;20212;-77
2021/09/02 09:36:38;;;;;;;;;;;28.90;99.90;;;;;;1824914;77;20237;-76
2021/09/02 09:39:12;;;;;;;;;;;28.80;99.90;;;;;;1830920;77;20232;-76
2021/09/02 09:41:42;;;;;;;;;;;28.80;99.90;;;;;;1819099;76;20457;-76
2021/09/02 09:44:13;;;;;;;;;;;28.70;99.90;;;;;;1821938;77;20217;-78
2021/09/02 09:46:43;;;;;;;;;;;28.70;99.90;;;;;;1831186;77;20265;-78
2021/09/02 09:49:12;;;;;;;;;;;28.60;99.50;;;;;;1825506;77;20295;-77
2021/09/02 09:51:43;;;;;;;;;;;28.60;99.90;;;;;;1794939;78;20231;-76
2021/09/02 09:54:14;;;;;;;;;;;28.60;99.80;;;;;;1827050;77;20241;-76
2021/09/02 09:56:44;;;;;;;;;;;28.60;99.90;;;;;;1820857;77;20209;-77
2021/09/02 09:59:14;;;;;;;;;;;28.50;99.80;;;;;;1830128;77;20234;-77
2021/09/02 10:01:44;;;;;;;;;;;28.50;99.90;;;;;;1822576;76;20215;-77
2021/09/02 10:04:14;;;;;;;;;;;28.60;99.90;;;;;;1835015;76;20489;-76
2021/09/02 10:06:47;;;;;;;;;;;28.60;99.90;;;;;;1832347;77;20188;-76
2021/09/02 10:09:19;;;;;;;;;;;28.50;99.90;;;;;;1833105;77;20186;-75
2021/09/02 10:11:48;;;;;;;;;;;28.40;99.90;;;;;;1831696;78;20210;-76
2021/09/02 10:14:18;;;;;;;;;;;28.40;99.90;;;;;;1833826;77;20221;-75
2021/09/02 10:16:48;;;;;;;;;;;28.40;99.90;;;;;;1860891;76;20518;-77
2021/09/02 10:19:22;;;;;;;;;;;28.30;99.90;;;;;;1866355;76;20265;-76
2021/09/02 10:21:53;;;;;;;;;;;28.30;99.90;;;;;;1793284;78;20165;-76
2021/09/02 10:24:23;;;;;;;;;;;28.30;99.90;;;;;;1856473;76;20223;-77
2021/09/02 10:26:54;;;;;;;;;;;28.30;99.90;;;;;;1826096;77;20184;-76
2021/09/02 10:29:25;;;;;;;;;;;28.30;99.90;;;;;;1875178;76;20174;-77
2021/09/02 10:31:56;;;;;;;;;;;28.30;99.90;;;;;;1799164;78;20188;-77
2021/09/02 10:34:28;;;;;;;;;;;28.20;99.90;;;;;;1855044;76;20222;-75
2021/09/02 10:36:57;;;;;;;;;;;28.20;99.90;;;;;;1836102;77;20277;-75
2021/09/02 10:39:29;;;;;;;;;;;28.10;99.90;;;;;;1858495;76;20226;-76
2021/09/02 10:41:59;;;;;;;;;;;28.10;99.90;;;;;;1855112;77;20176;-76
2021/09/02 10:44:30;;;;;;;;;;;28.10;99.90;;;;;;1856315;77;20360;-76
2021/09/02 10:47:02;;;;;;;;;;;28.20;99.90;;;;;;1853129;76;20167;-76
2021/09/02 10:49:36;;;;;;;;;;;28.10;99.90;;;;;;1854446;76;20135;-77
2021/09/02 10:52:07;;;;;;;;;;;28.10;99.90;;;;;;1860055;76;20162;-76
2021/09/02 10:54:38;;;;;;;;;;;28.10;99.90;;;;;;1856858;76;20227;-78
2021/09/02 10:57:09;;;;;;;;;;;28.00;99.90;;;;;;1862372;76;20277;-78
2021/09/02 10:59:46;;;;;;;;;;;28.00;99.90;;;;;;1857436;76;20281;-78
2021/09/02 11:02:17;;;;;;;;;;;28.00;99.90;;;;;;1863589;76;20151;-77
2021/09/02 11:04:48;;;;;;;;;;;28.00;99.90;;;;;;1854658;76;20244;-76
2021/09/02 11:07:17;;;;;;;;;;;28.00;99.90;;;;;;1857046;76;20175;-76
2021/09/02 11:09:48;;;;;;;;;;;28.00;99.90;;;;;;1856279;76;20399;-76
2021/09/02 11:12:18;;;;;;;;;;;27.90;99.90;;;;;;1818231;76;20566;-77
2021/09/02 11:14:48;;;;;;;;;;;28.00;99.90;;;;;;1800135;78;20129;-77
2021/09/02 11:17:17;;;;;;;;;;;27.90;99.90;;;;;;1788795;78;20297;-78
2021/09/02 11:19:56;;;;;;;;;;;27.90;99.90;;;;;;1833081;76;20189;-78
2021/09/02 11:22:25;;;;;;;;;;;27.80;99.90;;;;;;1833524;77;20635;-77
2021/09/02 11:24:56;;;;;;;;;;;27.80;99.90;;;;;;1827453;77;20302;-76
2021/09/02 11:27:28;;;;;;;;;;;27.70;99.90;;;;;;1813559;77;20199;-77
2021/09/02 11:29:59;;;;;;;;;;;27.80;99.90;;;;;;1819352;76;20217;-75
2021/09/02 11:32:30;;;;;;;;;;;27.80;99.90;;;;;;1824129;76;20181;-76
2021/09/02 11:35:00;;;;;;;;;;;27.80;99.90;;;;;;1828068;76;20206;-77
2021/09/02 11:37:31;;;;;;;;;;;27.70;99.90;;;;;;1846618;76;20206;-77
2021/09/02 11:40:01;;;;;;;;;;;27.70;99.90;;;;;;1826798;76;20230;-77
2021/09/02 11:42:33;;;;;;;;;;;27.70;99.90;;;;;;1820737;76;20159;-76
2021/09/02 11:45:04;;;;;;;;;;;27.70;99.90;;;;;;1789503;78;20219;-77
2021/09/02 11:47:35;;;;;;;;;;;27.60;99.90;;;;;;1789381;79;20289;-76
2021/09/02 11:50:06;;;;;;;;;;;27.60;99.90;;;;;;1830070;77;20212;-76
2021/09/02 11:52:37;;;;;;;;;;;27.50;99.90;;;;;;1792482;78;20613;-77
2021/09/02 11:55:08;;;;;;;;;;;27.50;99.90;;;;;;1824599;77;20185;-76
2021/09/02 11:57:37;;;;;;;;;;;27.50;99.90;;;;;;1832755;76;20189;-76
2021/09/02 12:00:07;;;;;;;;;;;27.40;99.90;;;;;;1823123;76;20546;-77
2021/09/02 12:02:37;;;;;;;;;;;27.30;99.90;;;;;;1822064;76;20396;-76
2021/09/02 12:05:06;;;;;;;;;;;27.30;99.90;;;;;;1830854;76;20284;-76
2021/09/02 12:07:36;;;;;;;;;;;27.30;99.90;;;;;;1796115;79;20141;-77
2021/09/02 12:10:07;;;;;;;;;;;27.20;99.90;;;;;;1781429;79;20251;-77
2021/09/02 12:12:37;;;;;;;;;;;27.20;99.90;;;;;;1779841;80;20206;-77
2021/09/02 12:15:08;;;;;;;;;;;27.20;99.90;;;;;;1789772;79;20230;-76
2021/09/02 12:17:38;;;;;;;;;;;27.20;99.90;;;;;;1787366;79;20268;-77
2021/09/02 12:20:08;;;;;;;;;;;27.20;99.90;;;;;;1824858;78;20239;-77
2021/09/02 12:22:39;;;;;;;;;;;27.20;99.90;;;;;;1795060;78;20243;-77
2021/09/02 12:25:11;;;;;;;;;;;27.20;99.90;;;;;;1792945;80;20208;-77
2021/09/02 12:27:42;;;;;;;;;;;27.20;99.90;;;;;;1817974;78;20207;-76
2021/09/02 12:30:12;;;;;;;;;;;27.20;99.90;;;;;;1783394;79;20259;-76
2021/09/02 12:32:42;;;;;;;;;;;27.20;99.90;;;;;;1787282;79;20503;-77
2021/09/02 12:35:13;;;;;;;;;;;27.20;99.90;;;;;;1828247;78;20190;-76
2021/09/02 12:37:44;;;;;;;;;;;27.20;99.90;;;;;;1798618;79;20134;-76
2021/09/02 12:40:15;;;;;;;;;;;27.20;99.90;;;;;;1827792;77;20137;-80
2021/09/02 12:42:45;;;;;;;;;;;27.10;99.90;;;;;;1821575;78;20124;-78
2021/09/02 12:45:23;;;;;;;;;;;27.00;99.90;;;;;;1821778;78;20166;-78
2021/09/02 12:47:47;;;;;;;;;;;26.90;99.90;;;;;;1826351;77;20578;-76
2021/09/02 12:50:21;;;;;;;;;;;26.90;99.90;;;;;;1822289;78;20268;-75
2021/09/02 12:53:14;;;;;;;;;;;26.80;99.90;;;;;;1819752;78;20124;-76
2021/09/02 12:55:56;;;;;;;;;;;26.80;99.90;;;;;;1806094;78;20221;-77
2021/09/02 12:58:44;;;;;;;;;;;26.80;99.90;;;;;;1814576;78;20216;-77
2021/09/02 13:01:43;;;;;;;;;;;26.80;99.90;;;;;;1831709;77;20219;-78
2021/09/02 13:04:04;;;;;;;;;;;26.80;99.90;;;;;;1824084;77;20156;-76
2021/09/02 13:06:34;;;;;;;;;;;26.80;99.90;;;;;;1822768;77;20162;-77
2021/09/02 13:09:04;;;;;;;;;;;26.90;99.90;;;;;;1817049;79;20165;-78
2021/09/02 13:11:35;;;;;;;;;;;26.90;99.90;;;;;;1820245;78;20755;-77
2021/09/02 13:14:04;;;;;;;;;;;26.90;99.90;;;;;;1843455;77;20192;-77
2021/09/02 13:16:34;;;;;;;;;;;27.00;99.90;;;;;;1844412;77;20207;-77
2021/09/02 13:19:03;;;;;;;;;;;27.00;99.90;;;;;;1846729;77;20224;-78
2021/09/02 13:21:33;;;;;;;;;;;27.00;99.90;;;;;;1832987;77;20210;-77
2021/09/02 13:24:03;;;;;;;;;;;27.10;99.90;;;;;;1808048;78;20189;-77
2021/09/02 13:26:38;;;;;;;;;;;27.10;99.90;;;;;;1821769;78;20574;-76
2021/09/02 13:29:10;;;;;;;;;;;27.10;99.90;;;;;;1817890;78;20556;-78
2021/09/02 13:31:40;;;;;;;;;;;27.10;99.90;;;;;;1814695;79;20221;-76
2021/09/02 13:34:14;;;;;;;;;;;27.10;99.90;;;;;;1814760;79;20121;-75
2021/09/02 13:36:45;;;;;;;;;;;27.10;99.90;;;;;;1811880;79;20193;-77
2021/09/02 13:39:16;;;;;;;;;;;27.10;99.90;;;;;;1811657;78;20262;-77
2021/09/02 13:41:47;;;;;;;;;;;27.10;99.90;;;;;;1823952;78;20208;-79
2021/09/02 13:44:24;;;;;;;;;;;27.10;99.90;;;;;;1813451;78;20239;-80
2021/09/02 13:47:11;;;;;;;;;;;27.10;99.90;;;;;;1825629;78;20102;-90
2021/09/02 13:49:49;;;;;;;;;;;27.10;99.90;;;;;;1821618;77;20168;-92
2021/09/02 13:52:42;;;;;;;;;;;27.10;99.90;;;;;;1758532;80;20224;-91
2021/09/02 13:55:18;;;;;;;;;;;27.10;99.90;;;;;;1664756;85;20307;-93
2021/09/02 13:58:09;;;;;;;;;;;27.10;99.90;;;;;;1654349;85;20236;-91
2021/09/02 14:04:13;;;;;;;;;;;;;;;;;;;;;
2021/09/02 14:06:51;;;;;;;;;;;27.10;99.90;;;;;;1586358;87;20176;-92
2021/09/02 14:21:13;;;;;;;;;;;;;;;;;;;;;
2021/09/02 14:23:52;;;;;;;;;;;27.00;99.90;;;;;;1548237;90;20183;-93
2021/09/02 14:26:48;;;;;;;;;;;27.00;99.90;;;;;;1548574;90;20241;-93
2021/09/02 14:29:37;;;;;;;;;;;27.00;99.90;;;;;;1547547;91;20265;-91
2021/09/02 14:32:35;;;;;;;;;;;;;;;;;;;;;
2021/09/02 14:35:16;;;;;;;;;;;27.00;99.90;;;;;;1954720;72;20142;-92
2021/09/02 14:37:54;;;;;;;;;;;27.10;99.90;;;;;;1920811;73;20170;-91
2021/09/02 14:40:35;;;;;;;;;;;27.10;99.90;;;;;;1934861;73;20179;-92
2021/09/02 14:43:16;;;;;;;;;;;27.10;99.90;;;;;;1920280;73;20610;-92
2021/09/02 14:46:10;;;;;;;;;;;27.00;99.90;;;;;;1921991;73;20185;-92
2021/09/02 14:48:39;;;;;;;;;;;26.90;99.90;;;;;;1926809;73;20214;-93
2021/09/02 14:54:12;;;;;;;;;;;26.80;99.90;;;;;;1803676;76;20242;-95
2021/09/02 14:56:46;;;;;;;;;;;26.80;99.90;;;;;;1828061;77;20242;-89
2021/09/02 14:59:39;;;;;;;;;;;26.80;99.90;;;;;;1826570;77;20255;-94
2021/09/02 15:02:30;;;;;;;;;;;26.80;99.90;;;;;;1824110;77;20430;-93